sensor_id;sensor_type;location;lat;lon;timestamp;P1;durP1;ratioP1;P2;durP2;ratioP2
59223;SDS011;45592;52.094;4.330;2022-08-24T00:02:05;6.18;;;2.05;;
59223;SDS011;45592;52.094;4.330;2022-08-24T00:04:31;5.03;;;2.00;;
59223;SDS011;45592;52.094;4.330;2022-08-24T00:06:56;3.80;;;1.90;;
59223;SDS011;45592;52.094;4.330;2022-08-24T00:09:22;4.10;;;1.77;;
59223;SDS011;45592;52.094;4.330;2022-08-24T00:11:47;4.35;;;1.70;;
59223;SDS011;45592;52.094;4.330;2022-08-24T00:14:12;7.07;;;2.13;;
59223;SDS011;45592;52.094;4.330;2022-08-24T00:16:38;4.22;;;2.20;;
59223;SDS011;45592;52.094;4.330;2022-08-24T00:19:04;3.88;;;1.92;;
59223;SDS011;45592;52.094;4.330;2022-08-24T00:21:29;6.80;;;2.00;;
59223;SDS011;45592;52.094;4.330;2022-08-24T00:23:54;3.65;;;1.80;;
59223;SDS011;45592;52.094;4.330;2022-08-24T00:26:20;4.65;;;1.70;;
59223;SDS011;45592;52.094;4.330;2022-08-24T00:28:46;4.45;;;1.80;;
59223;SDS011;45592;52.094;4.330;2022-08-24T00:31:11;3.90;;;1.90;;
59223;SDS011;45592;52.094;4.330;2022-08-24T00:33:36;3.85;;;2.00;;
59223;SDS011;45592;52.094;4.330;2022-08-24T00:36:02;4.65;;;2.15;;
59223;SDS011;45592;52.094;4.330;2022-08-24T00:38:28;4.18;;;2.05;;
59223;SDS011;45592;52.094;4.330;2022-08-24T00:40:54;5.13;;;1.90;;
59223;SDS011;45592;52.094;4.330;2022-08-24T00:43:21;3.45;;;1.80;;
59223;SDS011;45592;52.094;4.330;2022-08-24T00:48:43;3.97;;;1.98;;
59223;SDS011;45592;52.094;4.330;2022-08-24T00:51:19;3.85;;;1.60;;
59223;SDS011;45592;52.094;4.330;2022-08-24T00:54:03;3.60;;;2.00;;
59223;SDS011;45592;52.094;4.330;2022-08-24T00:56:33;5.05;;;2.17;;
59223;SDS011;45592;52.094;4.330;2022-08-24T00:59:07;6.88;;;1.75;;
59223;SDS011;45592;52.094;4.330;2022-08-24T01:01:38;3.40;;;1.75;;
59223;SDS011;45592;52.094;4.330;2022-08-24T01:04:05;3.38;;;1.83;;
59223;SDS011;45592;52.094;4.330;2022-08-24T01:06:34;4.38;;;1.83;;
59223;SDS011;45592;52.094;4.330;2022-08-24T01:08:59;4.90;;;1.95;;
59223;SDS011;45592;52.094;4.330;2022-08-24T01:11:25;3.67;;;1.77;;
59223;SDS011;45592;52.094;4.330;2022-08-24T01:13:52;5.32;;;1.83;;
59223;SDS011;45592;52.094;4.330;2022-08-24T01:16:19;4.57;;;1.80;;
59223;SDS011;45592;52.094;4.330;2022-08-24T01:19:10;5.03;;;1.90;;
59223;SDS011;45592;52.094;4.330;2022-08-24T01:21:49;4.38;;;1.73;;
59223;SDS011;45592;52.094;4.330;2022-08-24T01:24:26;5.55;;;1.80;;
59223;SDS011;45592;52.094;4.330;2022-08-24T01:26:52;3.72;;;1.85;;
59223;SDS011;45592;52.094;4.330;2022-08-24T01:29:18;4.70;;;2.00;;
59223;SDS011;45592;52.094;4.330;2022-08-24T01:31:46;6.93;;;2.13;;
59223;SDS011;45592;52.094;4.330;2022-08-24T01:34:12;3.88;;;2.00;;
59223;SDS011;45592;52.094;4.330;2022-08-24T01:39:35;3.90;;;2.10;;
59223;SDS011;45592;52.094;4.330;2022-08-24T01:42:11;4.28;;;1.83;;
59223;SDS011;45592;52.094;4.330;2022-08-24T01:44:38;5.03;;;1.73;;
59223;SDS011;45592;52.094;4.330;2022-08-24T01:47:06;4.20;;;1.70;;
59223;SDS011;45592;52.094;4.330;2022-08-24T01:49:35;5.05;;;1.73;;
59223;SDS011;45592;52.094;4.330;2022-08-24T01:52:03;3.90;;;1.75;;
59223;SDS011;45592;52.094;4.330;2022-08-24T01:54:30;4.22;;;1.90;;
59223;SDS011;45592;52.094;4.330;2022-08-24T01:56:56;3.90;;;1.90;;
59223;SDS011;45592;52.094;4.330;2022-08-24T01:59:23;5.35;;;1.77;;
59223;SDS011;45592;52.094;4.330;2022-08-24T02:01:51;3.50;;;1.85;;
59223;SDS011;45592;52.094;4.330;2022-08-24T02:04:19;3.97;;;1.80;;
59223;SDS011;45592;52.094;4.330;2022-08-24T02:06:44;4.97;;;1.85;;
59223;SDS011;45592;52.094;4.330;2022-08-24T02:09:10;3.90;;;1.75;;
59223;SDS011;45592;52.094;4.330;2022-08-24T02:11:36;4.00;;;1.63;;
59223;SDS011;45592;52.094;4.330;2022-08-24T02:14:03;4.85;;;2.10;;
59223;SDS011;45592;52.094;4.330;2022-08-24T02:16:29;4.07;;;2.08;;
59223;SDS011;45592;52.094;4.330;2022-08-24T02:18:55;5.40;;;2.60;;
59223;SDS011;45592;52.094;4.330;2022-08-24T02:21:20;6.32;;;2.03;;
59223;SDS011;45592;52.094;4.330;2022-08-24T02:23:46;3.60;;;1.83;;
59223;SDS011;45592;52.094;4.330;2022-08-24T02:26:11;3.38;;;1.90;;
59223;SDS011;45592;52.094;4.330;2022-08-24T02:28:37;5.40;;;1.90;;
59223;SDS011;45592;52.094;4.330;2022-08-24T02:31:03;4.20;;;1.90;;
59223;SDS011;45592;52.094;4.330;2022-08-24T02:33:30;4.60;;;2.22;;
59223;SDS011;45592;52.094;4.330;2022-08-24T02:35:56;4.50;;;2.22;;
59223;SDS011;45592;52.094;4.330;2022-08-24T02:38:22;7.50;;;2.20;;
59223;SDS011;45592;52.094;4.330;2022-08-24T02:40:47;3.95;;;2.10;;
59223;SDS011;45592;52.094;4.330;2022-08-24T02:43:13;4.50;;;2.03;;
59223;SDS011;45592;52.094;4.330;2022-08-24T02:45:39;6.97;;;2.03;;
59223;SDS011;45592;52.094;4.330;2022-08-24T02:48:06;5.75;;;2.10;;
59223;SDS011;45592;52.094;4.330;2022-08-24T02:50:32;5.00;;;2.00;;
59223;SDS011;45592;52.094;4.330;2022-08-24T02:53:02;4.82;;;2.10;;
59223;SDS011;45592;52.094;4.330;2022-08-24T02:55:27;9.75;;;3.25;;
59223;SDS011;45592;52.094;4.330;2022-08-24T02:57:53;9.77;;;3.50;;
59223;SDS011;45592;52.094;4.330;2022-08-24T03:00:19;6.18;;;2.65;;
59223;SDS011;45592;52.094;4.330;2022-08-24T03:02:45;6.63;;;2.75;;
59223;SDS011;45592;52.094;4.330;2022-08-24T03:05:11;7.35;;;3.15;;
59223;SDS011;45592;52.094;4.330;2022-08-24T03:07:38;13.15;;;7.85;;
59223;SDS011;45592;52.094;4.330;2022-08-24T03:10:04;7.05;;;4.28;;
59223;SDS011;45592;52.094;4.330;2022-08-24T03:12:30;7.25;;;3.60;;
59223;SDS011;45592;52.094;4.330;2022-08-24T03:14:56;6.38;;;3.20;;
59223;SDS011;45592;52.094;4.330;2022-08-24T03:17:21;7.90;;;3.10;;
59223;SDS011;45592;52.094;4.330;2022-08-24T03:19:48;7.20;;;3.72;;
59223;SDS011;45592;52.094;4.330;2022-08-24T03:22:13;5.90;;;3.10;;
59223;SDS011;45592;52.094;4.330;2022-08-24T03:24:39;9.18;;;3.38;;
59223;SDS011;45592;52.094;4.330;2022-08-24T03:27:04;7.13;;;3.33;;
59223;SDS011;45592;52.094;4.330;2022-08-24T03:29:30;6.47;;;3.70;;
59223;SDS011;45592;52.094;4.330;2022-08-24T03:31:57;4.82;;;3.05;;
59223;SDS011;45592;52.094;4.330;2022-08-24T03:34:23;7.40;;;3.13;;
59223;SDS011;45592;52.094;4.330;2022-08-24T03:36:48;6.97;;;4.40;;
59223;SDS011;45592;52.094;4.330;2022-08-24T03:39:14;7.53;;;5.18;;
59223;SDS011;45592;52.094;4.330;2022-08-24T03:41:41;8.95;;;5.10;;
59223;SDS011;45592;52.094;4.330;2022-08-24T03:44:07;8.35;;;5.60;;
59223;SDS011;45592;52.094;4.330;2022-08-24T03:46:33;8.23;;;4.63;;
59223;SDS011;45592;52.094;4.330;2022-08-24T03:49:00;7.97;;;4.43;;
59223;SDS011;45592;52.094;4.330;2022-08-24T03:51:28;9.45;;;4.68;;
59223;SDS011;45592;52.094;4.330;2022-08-24T03:53:55;9.80;;;5.00;;
59223;SDS011;45592;52.094;4.330;2022-08-24T03:56:22;8.60;;;4.97;;
59223;SDS011;45592;52.094;4.330;2022-08-24T03:58:48;9.40;;;6.03;;
59223;SDS011;45592;52.094;4.330;2022-08-24T04:01:14;7.93;;;5.10;;
59223;SDS011;45592;52.094;4.330;2022-08-24T04:03:41;6.72;;;4.65;;
59223;SDS011;45592;52.094;4.330;2022-08-24T04:06:09;9.88;;;4.85;;
59223;SDS011;45592;52.094;4.330;2022-08-24T04:08:36;8.57;;;4.50;;
59223;SDS011;45592;52.094;4.330;2022-08-24T04:11:01;8.55;;;4.82;;
59223;SDS011;45592;52.094;4.330;2022-08-24T04:13:27;9.80;;;4.28;;
59223;SDS011;45592;52.094;4.330;2022-08-24T04:15:56;8.35;;;4.22;;
59223;SDS011;45592;52.094;4.330;2022-08-24T04:18:35;7.72;;;4.70;;
59223;SDS011;45592;52.094;4.330;2022-08-24T04:21:00;8.18;;;4.20;;
59223;SDS011;45592;52.094;4.330;2022-08-24T04:23:26;8.98;;;4.25;;
59223;SDS011;45592;52.094;4.330;2022-08-24T04:26:02;9.10;;;4.57;;
59223;SDS011;45592;52.094;4.330;2022-08-24T04:28:28;7.03;;;3.65;;
59223;SDS011;45592;52.094;4.330;2022-08-24T04:30:54;10.43;;;4.00;;
59223;SDS011;45592;52.094;4.330;2022-08-24T04:33:21;6.80;;;3.58;;
59223;SDS011;45592;52.094;4.330;2022-08-24T04:35:47;8.20;;;3.75;;
59223;SDS011;45592;52.094;4.330;2022-08-24T04:38:14;8.00;;;3.25;;
59223;SDS011;45592;52.094;4.330;2022-08-24T04:40:41;6.53;;;3.30;;
59223;SDS011;45592;52.094;4.330;2022-08-24T04:43:09;7.65;;;3.60;;
59223;SDS011;45592;52.094;4.330;2022-08-24T04:45:38;6.78;;;3.25;;
59223;SDS011;45592;52.094;4.330;2022-08-24T04:48:05;7.32;;;3.38;;
59223;SDS011;45592;52.094;4.330;2022-08-24T04:50:34;7.65;;;3.42;;
59223;SDS011;45592;52.094;4.330;2022-08-24T04:53:02;6.43;;;3.47;;
59223;SDS011;45592;52.094;4.330;2022-08-24T04:55:28;7.75;;;4.45;;
59223;SDS011;45592;52.094;4.330;2022-08-24T04:57:53;7.63;;;4.22;;
59223;SDS011;45592;52.094;4.330;2022-08-24T05:00:19;6.57;;;3.83;;
59223;SDS011;45592;52.094;4.330;2022-08-24T05:02:44;7.15;;;3.28;;
59223;SDS011;45592;52.094;4.330;2022-08-24T05:05:10;7.63;;;3.92;;
59223;SDS011;45592;52.094;4.330;2022-08-24T05:07:35;7.22;;;3.65;;
59223;SDS011;45592;52.094;4.330;2022-08-24T05:10:02;7.57;;;3.72;;
59223;SDS011;45592;52.094;4.330;2022-08-24T05:12:29;8.18;;;3.72;;
59223;SDS011;45592;52.094;4.330;2022-08-24T05:14:55;7.60;;;3.75;;
59223;SDS011;45592;52.094;4.330;2022-08-24T05:17:20;9.38;;;4.00;;
59223;SDS011;45592;52.094;4.330;2022-08-24T05:19:46;8.65;;;3.50;;
59223;SDS011;45592;52.094;4.330;2022-08-24T05:22:13;10.18;;;4.18;;
59223;SDS011;45592;52.094;4.330;2022-08-24T05:24:38;9.73;;;4.05;;
59223;SDS011;45592;52.094;4.330;2022-08-24T05:27:04;6.80;;;3.30;;
59223;SDS011;45592;52.094;4.330;2022-08-24T05:29:29;7.20;;;3.65;;
59223;SDS011;45592;52.094;4.330;2022-08-24T05:31:57;7.90;;;3.45;;
59223;SDS011;45592;52.094;4.330;2022-08-24T05:34:23;7.40;;;3.42;;
59223;SDS011;45592;52.094;4.330;2022-08-24T05:36:48;10.25;;;3.28;;
59223;SDS011;45592;52.094;4.330;2022-08-24T05:39:14;8.63;;;3.60;;
59223;SDS011;45592;52.094;4.330;2022-08-24T05:41:40;9.73;;;3.70;;
59223;SDS011;45592;52.094;4.330;2022-08-24T05:44:07;7.68;;;3.60;;
59223;SDS011;45592;52.094;4.330;2022-08-24T05:46:33;9.55;;;4.10;;
59223;SDS011;45592;52.094;4.330;2022-08-24T05:48:59;6.13;;;3.35;;
59223;SDS011;45592;52.094;4.330;2022-08-24T05:51:25;6.82;;;3.33;;
59223;SDS011;45592;52.094;4.330;2022-08-24T05:53:52;7.35;;;3.80;;
59223;SDS011;45592;52.094;4.330;2022-08-24T05:56:18;7.55;;;3.67;;
59223;SDS011;45592;52.094;4.330;2022-08-24T05:58:44;7.78;;;3.60;;
59223;SDS011;45592;52.094;4.330;2022-08-24T06:01:11;7.05;;;3.30;;
59223;SDS011;45592;52.094;4.330;2022-08-24T06:03:41;8.43;;;3.75;;
59223;SDS011;45592;52.094;4.330;2022-08-24T06:06:07;8.32;;;3.13;;
59223;SDS011;45592;52.094;4.330;2022-08-24T06:08:35;7.00;;;3.35;;
59223;SDS011;45592;52.094;4.330;2022-08-24T06:11:04;9.05;;;3.80;;
59223;SDS011;45592;52.094;4.330;2022-08-24T06:13:30;8.05;;;3.22;;
59223;SDS011;45592;52.094;4.330;2022-08-24T06:16:07;7.55;;;3.22;;
59223;SDS011;45592;52.094;4.330;2022-08-24T06:18:35;7.45;;;3.45;;
59223;SDS011;45592;52.094;4.330;2022-08-24T06:21:03;8.98;;;4.20;;
59223;SDS011;45592;52.094;4.330;2022-08-24T06:23:33;11.63;;;4.85;;
59223;SDS011;45592;52.094;4.330;2022-08-24T06:25:59;8.20;;;4.47;;
59223;SDS011;45592;52.094;4.330;2022-08-24T06:28:44;9.38;;;4.65;;
59223;SDS011;45592;52.094;4.330;2022-08-24T06:31:09;9.00;;;5.15;;
59223;SDS011;45592;52.094;4.330;2022-08-24T06:33:35;7.65;;;4.05;;
59223;SDS011;45592;52.094;4.330;2022-08-24T06:36:00;9.00;;;4.57;;
59223;SDS011;45592;52.094;4.330;2022-08-24T06:38:26;10.75;;;5.53;;
59223;SDS011;45592;52.094;4.330;2022-08-24T06:40:52;11.20;;;4.30;;
59223;SDS011;45592;52.094;4.330;2022-08-24T06:43:17;8.20;;;4.35;;
59223;SDS011;45592;52.094;4.330;2022-08-24T06:45:43;9.82;;;5.30;;
59223;SDS011;45592;52.094;4.330;2022-08-24T06:48:08;10.10;;;4.60;;
59223;SDS011;45592;52.094;4.330;2022-08-24T06:50:34;10.93;;;4.85;;
59223;SDS011;45592;52.094;4.330;2022-08-24T06:53:00;11.52;;;5.20;;
59223;SDS011;45592;52.094;4.330;2022-08-24T06:55:26;9.55;;;5.15;;
59223;SDS011;45592;52.094;4.330;2022-08-24T06:57:53;11.95;;;5.57;;
59223;SDS011;45592;52.094;4.330;2022-08-24T07:00:19;10.50;;;5.28;;
59223;SDS011;45592;52.094;4.330;2022-08-24T07:02:45;12.75;;;5.50;;
59223;SDS011;45592;52.094;4.330;2022-08-24T07:05:10;10.82;;;5.57;;
59223;SDS011;45592;52.094;4.330;2022-08-24T07:07:36;9.48;;;5.45;;
59223;SDS011;45592;52.094;4.330;2022-08-24T07:10:02;11.55;;;5.90;;
59223;SDS011;45592;52.094;4.330;2022-08-24T07:12:29;9.43;;;5.53;;
59223;SDS011;45592;52.094;4.330;2022-08-24T07:14:54;11.32;;;5.68;;
59223;SDS011;45592;52.094;4.330;2022-08-24T07:17:19;10.82;;;5.43;;
59223;SDS011;45592;52.094;4.330;2022-08-24T07:19:45;9.77;;;4.97;;
59223;SDS011;45592;52.094;4.330;2022-08-24T07:22:11;12.70;;;5.45;;
59223;SDS011;45592;52.094;4.330;2022-08-24T07:24:37;10.40;;;5.78;;
59223;SDS011;45592;52.094;4.330;2022-08-24T07:27:03;8.77;;;4.40;;
59223;SDS011;45592;52.094;4.330;2022-08-24T07:29:28;8.43;;;4.65;;
59223;SDS011;45592;52.094;4.330;2022-08-24T07:31:54;12.88;;;4.97;;
59223;SDS011;45592;52.094;4.330;2022-08-24T07:34:19;7.75;;;3.60;;
59223;SDS011;45592;52.094;4.330;2022-08-24T07:36:44;6.85;;;3.78;;
59223;SDS011;45592;52.094;4.330;2022-08-24T07:39:10;7.75;;;3.78;;
59223;SDS011;45592;52.094;4.330;2022-08-24T07:41:36;10.07;;;4.88;;
59223;SDS011;45592;52.094;4.330;2022-08-24T07:44:05;7.72;;;4.03;;
59223;SDS011;45592;52.094;4.330;2022-08-24T07:46:34;8.68;;;3.75;;
59223;SDS011;45592;52.094;4.330;2022-08-24T07:49:00;8.38;;;4.45;;
59223;SDS011;45592;52.094;4.330;2022-08-24T07:51:26;8.35;;;4.28;;
59223;SDS011;45592;52.094;4.330;2022-08-24T07:53:52;8.05;;;4.55;;
59223;SDS011;45592;52.094;4.330;2022-08-24T07:56:18;9.57;;;5.03;;
59223;SDS011;45592;52.094;4.330;2022-08-24T07:58:43;8.48;;;4.55;;
59223;SDS011;45592;52.094;4.330;2022-08-24T08:01:09;10.82;;;4.75;;
59223;SDS011;45592;52.094;4.330;2022-08-24T08:03:35;7.47;;;4.28;;
59223;SDS011;45592;52.094;4.330;2022-08-24T08:06:03;8.77;;;4.05;;
59223;SDS011;45592;52.094;4.330;2022-08-24T08:08:30;8.60;;;4.15;;
59223;SDS011;45592;52.094;4.330;2022-08-24T08:11:02;9.85;;;5.20;;
59223;SDS011;45592;52.094;4.330;2022-08-24T08:13:28;7.88;;;3.55;;
59223;SDS011;45592;52.094;4.330;2022-08-24T08:15:55;10.13;;;4.03;;
59223;SDS011;45592;52.094;4.330;2022-08-24T08:18:21;9.70;;;4.13;;
59223;SDS011;45592;52.094;4.330;2022-08-24T08:20:46;10.57;;;3.90;;
59223;SDS011;45592;52.094;4.330;2022-08-24T08:23:12;8.23;;;4.00;;
59223;SDS011;45592;52.094;4.330;2022-08-24T08:25:56;6.30;;;2.80;;
59223;SDS011;45592;52.094;4.330;2022-08-24T08:28:22;5.50;;;3.00;;
59223;SDS011;45592;52.094;4.330;2022-08-24T08:30:48;6.30;;;2.83;;
59223;SDS011;45592;52.094;4.330;2022-08-24T08:33:14;6.32;;;2.80;;
59223;SDS011;45592;52.094;4.330;2022-08-24T08:35:39;7.30;;;3.00;;
59223;SDS011;45592;52.094;4.330;2022-08-24T08:38:05;6.50;;;2.90;;
59223;SDS011;45592;52.094;4.330;2022-08-24T08:46:16;5.80;;;2.50;;
59223;SDS011;45592;52.094;4.330;2022-08-24T08:51:50;7.57;;;2.17;;
59223;SDS011;45592;52.094;4.330;2022-08-24T08:54:39;4.03;;;1.60;;
59223;SDS011;45592;52.094;4.330;2022-08-24T08:57:23;3.50;;;1.83;;
59223;SDS011;45592;52.094;4.330;2022-08-24T09:00:03;4.50;;;1.63;;
59223;SDS011;45592;52.094;4.330;2022-08-24T09:05:34;3.45;;;1.10;;
59223;SDS011;45592;52.094;4.330;2022-08-24T09:13:51;3.38;;;1.50;;
59223;SDS011;45592;52.094;4.330;2022-08-24T09:16:48;4.80;;;1.30;;
59223;SDS011;45592;52.094;4.330;2022-08-24T09:19:37;4.07;;;1.30;;
59223;SDS011;45592;52.094;4.330;2022-08-24T09:22:15;5.07;;;1.52;;
59223;SDS011;45592;52.094;4.330;2022-08-24T09:38:06;4.22;;;1.00;;
59223;SDS011;45592;52.094;4.330;2022-08-24T09:43:41;3.15;;;1.13;;
59223;SDS011;45592;52.094;4.330;2022-08-24T09:52:21;2.55;;;1.08;;
59223;SDS011;45592;52.094;4.330;2022-08-24T10:00:46;5.18;;;1.20;;
59223;SDS011;45592;52.094;4.330;2022-08-24T10:12:20;3.75;;;1.70;;
59223;SDS011;45592;52.094;4.330;2022-08-24T10:14:59;5.50;;;1.90;;
59223;SDS011;45592;52.094;4.330;2022-08-24T10:18:20;7.82;;;2.25;;
59223;SDS011;45592;52.094;4.330;2022-08-24T10:20:52;7.55;;;2.50;;
59223;SDS011;45592;52.094;4.330;2022-08-24T10:26:29;7.63;;;3.13;;
59223;SDS011;45592;52.094;4.330;2022-08-24T10:35:08;7.45;;;2.60;;
59223;SDS011;45592;52.094;4.330;2022-08-24T10:43:50;3.97;;;1.90;;
59223;SDS011;45592;52.094;4.330;2022-08-24T10:49:10;3.58;;;1.73;;
59223;SDS011;45592;52.094;4.330;2022-08-24T10:54:45;3.20;;;2.05;;
59223;SDS011;45592;52.094;4.330;2022-08-24T10:57:19;4.97;;;1.70;;
59223;SDS011;45592;52.094;4.330;2022-08-24T10:59:59;4.30;;;1.80;;
59223;SDS011;45592;52.094;4.330;2022-08-24T11:02:31;4.20;;;1.80;;
59223;SDS011;45592;52.094;4.330;2022-08-24T11:05:04;7.13;;;2.10;;
59223;SDS011;45592;52.094;4.330;2022-08-24T11:07:32;4.20;;;1.52;;
59223;SDS011;45592;52.094;4.330;2022-08-24T11:09:59;4.72;;;1.60;;
59223;SDS011;45592;52.094;4.330;2022-08-24T11:15:20;5.15;;;1.55;;
59223;SDS011;45592;52.094;4.330;2022-08-24T11:17:52;3.33;;;1.48;;
59223;SDS011;45592;52.094;4.330;2022-08-24T11:20:28;3.58;;;1.42;;
59223;SDS011;45592;52.094;4.330;2022-08-24T11:25:29;3.63;;;1.42;;
59223;SDS011;45592;52.094;4.330;2022-08-24T11:28:19;7.78;;;1.30;;
59223;SDS011;45592;52.094;4.330;2022-08-24T11:31:01;4.97;;;1.23;;
59223;SDS011;45592;52.094;4.330;2022-08-24T11:33:32;2.78;;;1.30;;
59223;SDS011;45592;52.094;4.330;2022-08-24T11:36:13;5.80;;;1.48;;
59223;SDS011;45592;52.094;4.330;2022-08-24T11:38:40;3.97;;;1.10;;
59223;SDS011;45592;52.094;4.330;2022-08-24T11:41:14;3.20;;;1.20;;
59223;SDS011;45592;52.094;4.330;2022-08-24T11:46:27;2.63;;;1.23;;
59223;SDS011;45592;52.094;4.330;2022-08-24T11:49:19;3.42;;;1.10;;
59223;SDS011;45592;52.094;4.330;2022-08-24T11:54:37;2.60;;;1.15;;
59223;SDS011;45592;52.094;4.330;2022-08-24T12:02:28;4.47;;;1.63;;
59223;SDS011;45592;52.094;4.330;2022-08-24T12:05:03;2.80;;;1.20;;
59223;SDS011;45592;52.094;4.330;2022-08-24T12:10:26;3.80;;;1.45;;
59223;SDS011;45592;52.094;4.330;2022-08-24T12:13:23;3.55;;;1.23;;
59223;SDS011;45592;52.094;4.330;2022-08-24T12:16:11;4.45;;;1.30;;
59223;SDS011;45592;52.094;4.330;2022-08-24T12:19:05;13.85;;;1.63;;
59223;SDS011;45592;52.094;4.330;2022-08-24T12:21:35;3.45;;;1.08;;
59223;SDS011;45592;52.094;4.330;2022-08-24T12:24:06;3.65;;;1.10;;
59223;SDS011;45592;52.094;4.330;2022-08-24T12:26:35;1.85;;;1.15;;
59223;SDS011;45592;52.094;4.330;2022-08-24T12:31:45;4.78;;;1.17;;
59223;SDS011;45592;52.094;4.330;2022-08-24T12:34:20;2.88;;;1.40;;
59223;SDS011;45592;52.094;4.330;2022-08-24T12:36:55;3.40;;;1.05;;
59223;SDS011;45592;52.094;4.330;2022-08-24T12:39:29;4.32;;;1.48;;
59223;SDS011;45592;52.094;4.330;2022-08-24T12:42:05;2.97;;;1.08;;
59223;SDS011;45592;52.094;4.330;2022-08-24T12:44:54;3.38;;;1.20;;
59223;SDS011;45592;52.094;4.330;2022-08-24T12:47:29;2.97;;;1.20;;
59223;SDS011;45592;52.094;4.330;2022-08-24T12:50:07;4.53;;;1.20;;
59223;SDS011;45592;52.094;4.330;2022-08-24T12:52:44;2.03;;;1.20;;
59223;SDS011;45592;52.094;4.330;2022-08-24T12:58:34;3.72;;;1.40;;
59223;SDS011;45592;52.094;4.330;2022-08-24T13:01:01;6.22;;;1.90;;
59223;SDS011;45592;52.094;4.330;2022-08-24T13:03:33;4.50;;;1.30;;
59223;SDS011;45592;52.094;4.330;2022-08-24T13:06:06;3.03;;;1.10;;
59223;SDS011;45592;52.094;4.330;2022-08-24T13:08:41;3.63;;;1.23;;
59223;SDS011;45592;52.094;4.330;2022-08-24T13:11:30;3.50;;;1.17;;
59223;SDS011;45592;52.094;4.330;2022-08-24T13:21:55;4.25;;;1.20;;
59223;SDS011;45592;52.094;4.330;2022-08-24T13:26:57;3.13;;;1.02;;
59223;SDS011;45592;52.094;4.330;2022-08-24T13:32:30;3.72;;;1.00;;
59223;SDS011;45592;52.094;4.330;2022-08-24T13:38:19;4.82;;;1.40;;
59223;SDS011;45592;52.094;4.330;2022-08-24T13:40:51;2.20;;;1.30;;
59223;SDS011;45592;52.094;4.330;2022-08-24T13:43:25;3.55;;;1.60;;
59223;SDS011;45592;52.094;4.330;2022-08-24T13:46:00;4.28;;;1.42;;
59223;SDS011;45592;52.094;4.330;2022-08-24T13:48:51;4.18;;;1.13;;
59223;SDS011;45592;52.094;4.330;2022-08-24T13:56:54;4.30;;;1.60;;
59223;SDS011;45592;52.094;4.330;2022-08-24T13:59:37;4.75;;;2.00;;
59223;SDS011;45592;52.094;4.330;2022-08-24T14:13:05;3.90;;;1.40;;
59223;SDS011;45592;52.094;4.330;2022-08-24T14:15:57;3.40;;;1.40;;
59223;SDS011;45592;52.094;4.330;2022-08-24T14:18:52;3.83;;;1.55;;
59223;SDS011;45592;52.094;4.330;2022-08-24T14:21:21;2.97;;;1.77;;
59223;SDS011;45592;52.094;4.330;2022-08-24T14:24:02;8.20;;;2.13;;
59223;SDS011;45592;52.094;4.330;2022-08-24T14:34:36;5.18;;;1.67;;
59223;SDS011;45592;52.094;4.330;2022-08-24T14:39:52;5.95;;;2.25;;
59223;SDS011;45592;52.094;4.330;2022-08-24T14:50:14;6.38;;;2.47;;
59223;SDS011;45592;52.094;4.330;2022-08-24T14:52:54;6.53;;;2.15;;
59223;SDS011;45592;52.094;4.330;2022-08-24T14:58:31;5.43;;;2.30;;
59223;SDS011;45592;52.094;4.330;2022-08-24T15:01:16;3.72;;;2.22;;
59223;SDS011;45592;52.094;4.330;2022-08-24T15:06:44;7.45;;;2.40;;
59223;SDS011;45592;52.094;4.330;2022-08-24T15:11:46;4.10;;;2.22;;
59223;SDS011;45592;52.094;4.330;2022-08-24T15:17:10;3.63;;;2.20;;
59223;SDS011;45592;52.094;4.330;2022-08-24T15:22:08;5.38;;;2.53;;
59223;SDS011;45592;52.094;4.330;2022-08-24T15:27:52;6.25;;;2.47;;
59223;SDS011;45592;52.094;4.330;2022-08-24T15:30:30;5.57;;;2.88;;
59223;SDS011;45592;52.094;4.330;2022-08-24T15:33:15;5.82;;;2.90;;
59223;SDS011;45592;52.094;4.330;2022-08-24T15:35:43;7.18;;;3.17;;
59223;SDS011;45592;52.094;4.330;2022-08-24T15:38:17;5.45;;;3.00;;
59223;SDS011;45592;52.094;4.330;2022-08-24T15:40:48;8.68;;;3.80;;
59223;SDS011;45592;52.094;4.330;2022-08-24T15:43:16;5.03;;;3.10;;
59223;SDS011;45592;52.094;4.330;2022-08-24T15:45:46;5.85;;;3.10;;
59223;SDS011;45592;52.094;4.330;2022-08-24T15:48:15;11.35;;;3.67;;
59223;SDS011;45592;52.094;4.330;2022-08-24T15:50:45;5.40;;;2.83;;
59223;SDS011;45592;52.094;4.330;2022-08-24T15:53:29;6.10;;;3.13;;
59223;SDS011;45592;52.094;4.330;2022-08-24T15:59:09;5.47;;;2.80;;
59223;SDS011;45592;52.094;4.330;2022-08-24T16:01:36;6.50;;;2.75;;
59223;SDS011;45592;52.094;4.330;2022-08-24T16:07:13;5.50;;;2.90;;
59223;SDS011;45592;52.094;4.330;2022-08-24T16:09:59;5.53;;;3.15;;
59223;SDS011;45592;52.094;4.330;2022-08-24T16:12:26;4.60;;;2.70;;
59223;SDS011;45592;52.094;4.330;2022-08-24T16:14:55;5.47;;;2.97;;
59223;SDS011;45592;52.094;4.330;2022-08-24T16:17:38;4.53;;;2.75;;
59223;SDS011;45592;52.094;4.330;2022-08-24T16:20:16;6.25;;;2.92;;
59223;SDS011;45592;52.094;4.330;2022-08-24T16:22:56;6.57;;;2.75;;
59223;SDS011;45592;52.094;4.330;2022-08-24T16:28:03;4.57;;;2.53;;
59223;SDS011;45592;52.094;4.330;2022-08-24T16:30:38;4.82;;;3.10;;
59223;SDS011;45592;52.094;4.330;2022-08-24T16:35:57;4.50;;;2.28;;
59223;SDS011;45592;52.094;4.330;2022-08-24T16:38:24;5.25;;;2.40;;
59223;SDS011;45592;52.094;4.330;2022-08-24T16:40:50;4.68;;;2.72;;
59223;SDS011;45592;52.094;4.330;2022-08-24T16:43:16;8.00;;;2.70;;
59223;SDS011;45592;52.094;4.330;2022-08-24T16:45:41;7.70;;;2.85;;
59223;SDS011;45592;52.094;4.330;2022-08-24T16:48:07;6.28;;;3.22;;
59223;SDS011;45592;52.094;4.330;2022-08-24T16:50:32;4.30;;;2.83;;
59223;SDS011;45592;52.094;4.330;2022-08-24T16:52:58;4.18;;;2.40;;
59223;SDS011;45592;52.094;4.330;2022-08-24T16:55:23;4.68;;;2.85;;
59223;SDS011;45592;52.094;4.330;2022-08-24T16:57:52;4.03;;;2.45;;
59223;SDS011;45592;52.094;4.330;2022-08-24T17:00:18;5.35;;;3.20;;
59223;SDS011;45592;52.094;4.330;2022-08-24T17:02:45;4.30;;;2.50;;
59223;SDS011;45592;52.094;4.330;2022-08-24T17:05:12;4.65;;;2.83;;
59223;SDS011;45592;52.094;4.330;2022-08-24T17:07:39;6.13;;;3.13;;
59223;SDS011;45592;52.094;4.330;2022-08-24T17:10:06;4.28;;;2.70;;
59223;SDS011;45592;52.094;4.330;2022-08-24T17:12:36;5.78;;;2.83;;
59223;SDS011;45592;52.094;4.330;2022-08-24T17:15:06;4.97;;;2.60;;
59223;SDS011;45592;52.094;4.330;2022-08-24T17:17:33;7.57;;;3.35;;
59223;SDS011;45592;52.094;4.330;2022-08-24T17:20:00;5.57;;;2.95;;
59223;SDS011;45592;52.094;4.330;2022-08-24T17:22:27;6.32;;;3.42;;
59223;SDS011;45592;52.094;4.330;2022-08-24T17:24:52;4.90;;;3.45;;
59223;SDS011;45592;52.094;4.330;2022-08-24T17:27:18;5.78;;;3.33;;
59223;SDS011;45592;52.094;4.330;2022-08-24T17:29:47;5.97;;;3.40;;
59223;SDS011;45592;52.094;4.330;2022-08-24T17:32:13;5.28;;;3.70;;
59223;SDS011;45592;52.094;4.330;2022-08-24T17:34:38;5.60;;;3.55;;
59223;SDS011;45592;52.094;4.330;2022-08-24T17:37:04;5.75;;;4.10;;
59223;SDS011;45592;52.094;4.330;2022-08-24T17:39:31;7.40;;;4.05;;
59223;SDS011;45592;52.094;4.330;2022-08-24T17:41:57;8.25;;;4.35;;
59223;SDS011;45592;52.094;4.330;2022-08-24T17:44:25;5.07;;;3.50;;
59223;SDS011;45592;52.094;4.330;2022-08-24T17:46:53;6.25;;;3.83;;
59223;SDS011;45592;52.094;4.330;2022-08-24T17:49:22;7.97;;;3.90;;
59223;SDS011;45592;52.094;4.330;2022-08-24T17:51:48;6.25;;;3.58;;
59223;SDS011;45592;52.094;4.330;2022-08-24T17:54:14;5.80;;;3.42;;
59223;SDS011;45592;52.094;4.330;2022-08-24T17:56:42;6.43;;;3.53;;
59223;SDS011;45592;52.094;4.330;2022-08-24T17:59:10;7.70;;;3.72;;
59223;SDS011;45592;52.094;4.330;2022-08-24T18:01:56;6.40;;;3.75;;
59223;SDS011;45592;52.094;4.330;2022-08-24T18:04:31;6.40;;;3.13;;
59223;SDS011;45592;52.094;4.330;2022-08-24T18:06:59;7.85;;;3.85;;
59223;SDS011;45592;52.094;4.330;2022-08-24T18:09:31;6.82;;;3.30;;